sensor_id;sensor_type;location;lat;lon;timestamp;P1;P2;P0
84751;PMS5003;74978;37.772;-122.432;2024-01-30T00:01:30;4;3;
84751;PMS5003;74978;37.772;-122.432;2024-01-30T00:03:55;3;3;
84751;PMS5003;74978;37.772;-122.432;2024-01-30T00:06:21;3;3;
84751;PMS5003;74978;37.772;-122.432;2024-01-30T00:08:46;3;3;
84751;PMS5003;74978;37.772;-122.432;2024-01-30T00:11:12;4;2;
84751;PMS5003;74978;37.772;-122.432;2024-01-30T00:13:37;3;3;
84751;PMS5003;74978;37.772;-122.432;2024-01-30T00:16:03;3;3;
84751;PMS5003;74978;37.772;-122.432;2024-01-30T00:18:28;4;4;
84751;PMS5003;74978;37.772;-122.432;2024-01-30T00:20:54;4;4;
84751;PMS5003;74978;37.772;-122.432;2024-01-30T00:23:19;3;3;
84751;PMS5003;74978;37.772;-122.432;2024-01-30T00:25:44;4;3;
84751;PMS5003;74978;37.772;-122.432;2024-01-30T00:28:09;4;4;
84751;PMS5003;74978;37.772;-122.432;2024-01-30T00:30:35;5;3;
84751;PMS5003;74978;37.772;-122.432;2024-01-30T00:33:00;5;4;
84751;PMS5003;74978;37.772;-122.432;2024-01-30T00:35:25;3;3;
84751;PMS5003;74978;37.772;-122.432;2024-01-30T00:37:51;2;2;
84751;PMS5003;74978;37.772;-122.432;2024-01-30T00:40:16;2;2;
84751;PMS5003;74978;37.772;-122.432;2024-01-30T00:42:43;5;5;
84751;PMS5003;74978;37.772;-122.432;2024-01-30T00:45:11;3;3;
84751;PMS5003;74978;37.772;-122.432;2024-01-30T00:47:33;5;4;
84751;PMS5003;74978;37.772;-122.432;2024-01-30T00:49:58;4;4;
84751;PMS5003;74978;37.772;-122.432;2024-01-30T00:52:24;3;3;
84751;PMS5003;74978;37.772;-122.432;2024-01-30T00:54:49;3;2;
84751;PMS5003;74978;37.772;-122.432;2024-01-30T00:57:15;4;4;
84751;PMS5003;74978;37.772;-122.432;2024-01-30T00:59:40;3;3;
84751;PMS5003;74978;37.772;-122.432;2024-01-30T01:02:06;4;4;
84751;PMS5003;74978;37.772;-122.432;2024-01-30T01:04:32;4;4;
84751;PMS5003;74978;37.772;-122.432;2024-01-30T01:06:57;5;4;
84751;PMS5003;74978;37.772;-122.432;2024-01-30T01:09:22;3;3;
84751;PMS5003;74978;37.772;-122.432;2024-01-30T01:11:48;2;2;
84751;PMS5003;74978;37.772;-122.432;2024-01-30T01:14:14;4;4;
84751;PMS5003;74978;37.772;-122.432;2024-01-30T01:16:39;5;5;
84751;PMS5003;74978;37.772;-122.432;2024-01-30T01:19:05;6;6;
84751;PMS5003;74978;37.772;-122.432;2024-01-30T01:21:30;6;4;
84751;PMS5003;74978;37.772;-122.432;2024-01-30T01:23:55;4;4;
84751;PMS5003;74978;37.772;-122.432;2024-01-30T01:26:21;4;4;
84751;PMS5003;74978;37.772;-122.432;2024-01-30T01:28:46;3;2;
84751;PMS5003;74978;37.772;-122.432;2024-01-30T01:31:11;6;5;
84751;PMS5003;74978;37.772;-122.432;2024-01-30T01:33:37;5;4;
84751;PMS5003;74978;37.772;-122.432;2024-01-30T01:36:03;6;6;
84751;PMS5003;74978;37.772;-122.432;2024-01-30T01:38:28;5;5;
84751;PMS5003;74978;37.772;-122.432;2024-01-30T01:40:54;7;5;
84751;PMS5003;74978;37.772;-122.432;2024-01-30T01:43:19;3;3;
84751;PMS5003;74978;37.772;-122.432;2024-01-30T01:45:45;5;3;
84751;PMS5003;74978;37.772;-122.432;2024-01-30T01:48:11;5;4;
84751;PMS5003;74978;37.772;-122.432;2024-01-30T01:50:36;5;5;
84751;PMS5003;74978;37.772;-122.432;2024-01-30T01:53:01;3;3;
84751;PMS5003;74978;37.772;-122.432;2024-01-30T01:55:27;6;6;
84751;PMS5003;74978;37.772;-122.432;2024-01-30T01:57:53;4;4;
84751;PMS5003;74978;37.772;-122.432;2024-01-30T02:00:18;6;6;
84751;PMS5003;74978;37.772;-122.432;2024-01-30T02:02:43;8;6;
84751;PMS5003;74978;37.772;-122.432;2024-01-30T02:05:09;7;6;
84751;PMS5003;74978;37.772;-122.432;2024-01-30T02:07:34;4;4;
84751;PMS5003;74978;37.772;-122.432;2024-01-30T02:10:01;4;3;
84751;PMS5003;74978;37.772;-122.432;2024-01-30T02:12:25;5;5;
84751;PMS5003;74978;37.772;-122.432;2024-01-30T02:14:51;6;6;
84751;PMS5003;74978;37.772;-122.432;2024-01-30T02:17:16;7;5;
84751;PMS5003;74978;37.772;-122.432;2024-01-30T02:19:41;5;5;
84751;PMS5003;74978;37.772;-122.432;2024-01-30T02:22:07;7;6;
84751;PMS5003;74978;37.772;-122.432;2024-01-30T02:24:32;6;6;
84751;PMS5003;74978;37.772;-122.432;2024-01-30T02:26:58;8;7;
84751;PMS5003;74978;37.772;-122.432;2024-01-30T02:29:24;6;6;
84751;PMS5003;74978;37.772;-122.432;2024-01-30T02:31:49;5;5;
84751;PMS5003;74978;37.772;-122.432;2024-01-30T02:34:14;6;6;
84751;PMS5003;74978;37.772;-122.432;2024-01-30T02:36:42;7;7;
84751;PMS5003;74978;37.772;-122.432;2024-01-30T02:39:05;12;9;
84751;PMS5003;74978;37.772;-122.432;2024-01-30T02:41:31;5;5;
84751;PMS5003;74978;37.772;-122.432;2024-01-30T02:43:56;10;10;
84751;PMS5003;74978;37.772;-122.432;2024-01-30T02:46:22;5;5;
84751;PMS5003;74978;37.772;-122.432;2024-01-30T02:48:47;6;6;
84751;PMS5003;74978;37.772;-122.432;2024-01-30T02:51:13;10;7;
84751;PMS5003;74978;37.772;-122.432;2024-01-30T02:53:39;9;8;
84751;PMS5003;74978;37.772;-122.432;2024-01-30T02:56:04;8;8;
84751;PMS5003;74978;37.772;-122.432;2024-01-30T02:58:34;9;9;
84751;PMS5003;74978;37.772;-122.432;2024-01-30T03:00:55;10;9;
84751;PMS5003;74978;37.772;-122.432;2024-01-30T03:03:21;9;8;
84751;PMS5003;74978;37.772;-122.432;2024-01-30T03:05:46;11;11;
84751;PMS5003;74978;37.772;-122.432;2024-01-30T03:08:12;7;7;
84751;PMS5003;74978;37.772;-122.432;2024-01-30T03:10:38;15;13;
84751;PMS5003;74978;37.772;-122.432;2024-01-30T03:13:04;16;15;
84751;PMS5003;74978;37.772;-122.432;2024-01-30T03:15:30;14;12;
84751;PMS5003;74978;37.772;-122.432;2024-01-30T03:17:55;15;15;
84751;PMS5003;74978;37.772;-122.432;2024-01-30T03:20:20;15;12;
84751;PMS5003;74978;37.772;-122.432;2024-01-30T03:22:46;13;13;
84751;PMS5003;74978;37.772;-122.432;2024-01-30T03:25:12;14;14;
84751;PMS5003;74978;37.772;-122.432;2024-01-30T03:27:37;13;11;
84751;PMS5003;74978;37.772;-122.432;2024-01-30T03:30:02;13;12;
84751;PMS5003;74978;37.772;-122.432;2024-01-30T03:32:28;14;14;
84751;PMS5003;74978;37.772;-122.432;2024-01-30T03:34:53;16;15;
84751;PMS5003;74978;37.772;-122.432;2024-01-30T03:37:19;15;12;
84751;PMS5003;74978;37.772;-122.432;2024-01-30T03:39:44;15;12;
84751;PMS5003;74978;37.772;-122.432;2024-01-30T03:42:09;14;14;
84751;PMS5003;74978;37.772;-122.432;2024-01-30T03:44:35;17;14;
84751;PMS5003;74978;37.772;-122.432;2024-01-30T03:47:00;14;13;
84751;PMS5003;74978;37.772;-122.432;2024-01-30T03:49:26;17;17;
84751;PMS5003;74978;37.772;-122.432;2024-01-30T03:51:51;16;16;
84751;PMS5003;74978;37.772;-122.432;2024-01-30T03:54:16;26;21;
84751;PMS5003;74978;37.772;-122.432;2024-01-30T03:56:42;23;22;
84751;PMS5003;74978;37.772;-122.432;2024-01-30T03:59:09;22;20;
84751;PMS5003;74978;37.772;-122.432;2024-01-30T04:01:33;22;18;
84751;PMS5003;74978;37.772;-122.432;2024-01-30T04:03:58;15;15;
84751;PMS5003;74978;37.772;-122.432;2024-01-30T04:06:24;16;14;
84751;PMS5003;74978;37.772;-122.432;2024-01-30T04:08:49;17;17;
84751;PMS5003;74978;37.772;-122.432;2024-01-30T04:11:14;17;16;
84751;PMS5003;74978;37.772;-122.432;2024-01-30T04:13:40;14;14;
84751;PMS5003;74978;37.772;-122.432;2024-01-30T04:16:06;16;14;
84751;PMS5003;74978;37.772;-122.432;2024-01-30T04:18:31;18;16;
84751;PMS5003;74978;37.772;-122.432;2024-01-30T04:20:56;17;16;
84751;PMS5003;74978;37.772;-122.432;2024-01-30T04:23:22;21;19;
84751;PMS5003;74978;37.772;-122.432;2024-01-30T04:25:47;16;16;
84751;PMS5003;74978;37.772;-122.432;2024-01-30T04:28:12;13;13;
84751;PMS5003;74978;37.772;-122.432;2024-01-30T04:30:38;14;13;
84751;PMS5003;74978;37.772;-122.432;2024-01-30T04:33:03;16;13;
84751;PMS5003;74978;37.772;-122.432;2024-01-30T04:35:29;12;12;
84751;PMS5003;74978;37.772;-122.432;2024-01-30T04:37:54;11;11;
84751;PMS5003;74978;37.772;-122.432;2024-01-30T04:40:20;12;12;
84751;PMS5003;74978;37.772;-122.432;2024-01-30T04:42:45;11;9;
84751;PMS5003;74978;37.772;-122.432;2024-01-30T04:45:10;9;9;
84751;PMS5003;74978;37.772;-122.432;2024-01-30T04:47:36;9;9;
84751;PMS5003;74978;37.772;-122.432;2024-01-30T04:50:01;16;13;
84751;PMS5003;74978;37.772;-122.432;2024-01-30T04:52:27;8;8;
84751;PMS5003;74978;37.772;-122.432;2024-01-30T04:54:52;8;8;
84751;PMS5003;74978;37.772;-122.432;2024-01-30T04:57:18;11;9;
84751;PMS5003;74978;37.772;-122.432;2024-01-30T04:59:43;8;8;
84751;PMS5003;74978;37.772;-122.432;2024-01-30T05:02:09;7;7;
84751;PMS5003;74978;37.772;-122.432;2024-01-30T05:04:35;8;7;
84751;PMS5003;74978;37.772;-122.432;2024-01-30T05:07:00;10;7;
84751;PMS5003;74978;37.772;-122.432;2024-01-30T05:09:25;10;8;
84751;PMS5003;74978;37.772;-122.432;2024-01-30T05:11:51;6;6;
84751;PMS5003;74978;37.772;-122.432;2024-01-30T05:14:21;8;6;
84751;PMS5003;74978;37.772;-122.432;2024-01-30T05:16:42;7;7;
84751;PMS5003;74978;37.772;-122.432;2024-01-30T05:19:07;8;8;
84751;PMS5003;74978;37.772;-122.432;2024-01-30T05:21:33;8;8;
84751;PMS5003;74978;37.772;-122.432;2024-01-30T05:23:58;9;9;
84751;PMS5003;74978;37.772;-122.432;2024-01-30T05:26:25;9;9;
84751;PMS5003;74978;37.772;-122.432;2024-01-30T05:28:49;9;9;
84751;PMS5003;74978;37.772;-122.432;2024-01-30T05:31:15;11;11;
84751;PMS5003;74978;37.772;-122.432;2024-01-30T05:33:40;10;10;
84751;PMS5003;74978;37.772;-122.432;2024-01-30T05:36:05;11;10;
84751;PMS5003;74978;37.772;-122.432;2024-01-30T05:38:31;20;15;
84751;PMS5003;74978;37.772;-122.432;2024-01-30T05:40:56;23;21;
84751;PMS5003;74978;37.772;-122.432;2024-01-30T05:43:21;14;13;
84751;PMS5003;74978;37.772;-122.432;2024-01-30T05:45:47;17;14;
84751;PMS5003;74978;37.772;-122.432;2024-01-30T05:48:12;11;10;
84751;PMS5003;74978;37.772;-122.432;2024-01-30T05:50:38;11;10;
84751;PMS5003;74978;37.772;-122.432;2024-01-30T05:53:03;12;11;
84751;PMS5003;74978;37.772;-122.432;2024-01-30T05:55:28;12;12;
84751;PMS5003;74978;37.772;-122.432;2024-01-30T05:57:54;10;8;
84751;PMS5003;74978;37.772;-122.432;2024-01-30T06:00:20;15;14;
84751;PMS5003;74978;37.772;-122.432;2024-01-30T06:02:46;9;9;
84751;PMS5003;74978;37.772;-122.432;2024-01-30T06:05:11;14;13;
84751;PMS5003;74978;37.772;-122.432;2024-01-30T06:07:37;12;12;
84751;PMS5003;74978;37.772;-122.432;2024-01-30T06:10:02;17;13;
84751;PMS5003;74978;37.772;-122.432;2024-01-30T06:12:27;8;8;
84751;PMS5003;74978;37.772;-122.432;2024-01-30T06:14:53;10;10;
84751;PMS5003;74978;37.772;-122.432;2024-01-30T06:17:18;14;14;
84751;PMS5003;74978;37.772;-122.432;2024-01-30T06:19:44;13;11;
84751;PMS5003;74978;37.772;-122.432;2024-01-30T06:22:10;7;7;
84751;PMS5003;74978;37.772;-122.432;2024-01-30T06:24:35;11;11;
84751;PMS5003;74978;37.772;-122.432;2024-01-30T06:27:00;12;9;
84751;PMS5003;74978;37.772;-122.432;2024-01-30T06:29:25;10;10;
84751;PMS5003;74978;37.772;-122.432;2024-01-30T06:31:51;12;11;
84751;PMS5003;74978;37.772;-122.432;2024-01-30T06:34:16;12;12;
84751;PMS5003;74978;37.772;-122.432;2024-01-30T06:36:42;16;13;
84751;PMS5003;74978;37.772;-122.432;2024-01-30T06:39:08;11;11;
84751;PMS5003;74978;37.772;-122.432;2024-01-30T06:41:33;12;11;
84751;PMS5003;74978;37.772;-122.432;2024-01-30T06:43:59;11;11;
84751;PMS5003;74978;37.772;-122.432;2024-01-30T06:46:24;9;9;
84751;PMS5003;74978;37.772;-122.432;2024-01-30T06:48:50;17;16;
84751;PMS5003;74978;37.772;-122.432;2024-01-30T06:51:15;12;11;
84751;PMS5003;74978;37.772;-122.432;2024-01-30T06:53:40;10;10;
84751;PMS5003;74978;37.772;-122.432;2024-01-30T06:56:06;17;14;
84751;PMS5003;74978;37.772;-122.432;2024-01-30T06:58:31;17;15;
84751;PMS5003;74978;37.772;-122.432;2024-01-30T07:00:57;13;13;
84751;PMS5003;74978;37.772;-122.432;2024-01-30T07:03:23;11;10;
84751;PMS5003;74978;37.772;-122.432;2024-01-30T07:05:48;11;11;
84751;PMS5003;74978;37.772;-122.432;2024-01-30T07:08:13;13;10;
84751;PMS5003;74978;37.772;-122.432;2024-01-30T07:10:39;15;11;
84751;PMS5003;74978;37.772;-122.432;2024-01-30T07:13:04;20;15;
84751;PMS5003;74978;37.772;-122.432;2024-01-30T07:15:30;13;13;
84751;PMS5003;74978;37.772;-122.432;2024-01-30T07:17:55;15;14;
84751;PMS5003;74978;37.772;-122.432;2024-01-30T07:20:21;17;15;
84751;PMS5003;74978;37.772;-122.432;2024-01-30T07:22:46;14;12;
84751;PMS5003;74978;37.772;-122.432;2024-01-30T07:25:12;14;13;
84751;PMS5003;74978;37.772;-122.432;2024-01-30T07:27:38;16;12;
84751;PMS5003;74978;37.772;-122.432;2024-01-30T07:30:03;16;15;
84751;PMS5003;74978;37.772;-122.432;2024-01-30T07:32:29;14;13;
84751;PMS5003;74978;37.772;-122.432;2024-01-30T07:34:54;14;11;
84751;PMS5003;74978;37.772;-122.432;2024-01-30T07:37:20;14;14;
84751;PMS5003;74978;37.772;-122.432;2024-01-30T07:39:46;14;12;
84751;PMS5003;74978;37.772;-122.432;2024-01-30T07:42:11;12;12;
84751;PMS5003;74978;37.772;-122.432;2024-01-30T07:44:36;14;12;
84751;PMS5003;74978;37.772;-122.432;2024-01-30T07:47:02;22;18;
84751;PMS5003;74978;37.772;-122.432;2024-01-30T07:49:26;12;9;
84751;PMS5003;74978;37.772;-122.432;2024-01-30T07:51:52;14;11;
84751;PMS5003;74978;37.772;-122.432;2024-01-30T07:54:16;16;12;
84751;PMS5003;74978;37.772;-122.432;2024-01-30T07:56:42;12;12;
84751;PMS5003;74978;37.772;-122.432;2024-01-30T07:59:09;13;11;
84751;PMS5003;74978;37.772;-122.432;2024-01-30T08:01:33;11;11;
84751;PMS5003;74978;37.772;-122.432;2024-01-30T08:03:59;19;19;
84751;PMS5003;74978;37.772;-122.432;2024-01-30T08:06:24;10;10;
84751;PMS5003;74978;37.772;-122.432;2024-01-30T08:08:50;13;12;
84751;PMS5003;74978;37.772;-122.432;2024-01-30T08:11:15;14;10;
84751;PMS5003;74978;37.772;-122.432;2024-01-30T08:13:41;19;17;
84751;PMS5003;74978;37.772;-122.432;2024-01-30T08:16:06;14;13;
84751;PMS5003;74978;37.772;-122.432;2024-01-30T08:18:31;9;9;
84751;PMS5003;74978;37.772;-122.432;2024-01-30T08:20:57;14;13;
84751;PMS5003;74978;37.772;-122.432;2024-01-30T08:23:23;13;13;
84751;PMS5003;74978;37.772;-122.432;2024-01-30T08:25:48;15;13;
84751;PMS5003;74978;37.772;-122.432;2024-01-30T08:28:14;13;12;
84751;PMS5003;74978;37.772;-122.432;2024-01-30T08:30:39;10;9;
84751;PMS5003;74978;37.772;-122.432;2024-01-30T08:33:04;7;7;
84751;PMS5003;74978;37.772;-122.432;2024-01-30T08:35:30;11;10;
84751;PMS5003;74978;37.772;-122.432;2024-01-30T08:37:55;15;14;
84751;PMS5003;74978;37.772;-122.432;2024-01-30T08:40:21;8;8;
84751;PMS5003;74978;37.772;-122.432;2024-01-30T08:42:46;11;9;
84751;PMS5003;74978;37.772;-122.432;2024-01-30T08:45:11;10;10;
84751;PMS5003;74978;37.772;-122.432;2024-01-30T08:47:37;14;12;
84751;PMS5003;74978;37.772;-122.432;2024-01-30T08:50:02;17;17;
84751;PMS5003;74978;37.772;-122.432;2024-01-30T08:52:28;16;12;
84751;PMS5003;74978;37.772;-122.432;2024-01-30T08:54:53;14;13;
84751;PMS5003;74978;37.772;-122.432;2024-01-30T08:57:19;13;11;
84751;PMS5003;74978;37.772;-122.432;2024-01-30T08:59:44;12;12;
84751;PMS5003;74978;37.772;-122.432;2024-01-30T09:02:09;15;13;
84751;PMS5003;74978;37.772;-122.432;2024-01-30T09:04:35;12;10;
84751;PMS5003;74978;37.772;-122.432;2024-01-30T09:07:00;12;11;
84751;PMS5003;74978;37.772;-122.432;2024-01-30T09:09:25;12;11;
84751;PMS5003;74978;37.772;-122.432;2024-01-30T09:11:50;15;13;
84751;PMS5003;74978;37.772;-122.432;2024-01-30T09:14:16;12;10;
84751;PMS5003;74978;37.772;-122.432;2024-01-30T09:16:41;13;11;
84751;PMS5003;74978;37.772;-122.432;2024-01-30T09:19:07;12;11;
84751;PMS5003;74978;37.772;-122.432;2024-01-30T09:21:32;13;11;
84751;PMS5003;74978;37.772;-122.432;2024-01-30T09:24:01;23;19;
84751;PMS5003;74978;37.772;-122.432;2024-01-30T09:26:23;13;11;
84751;PMS5003;74978;37.772;-122.432;2024-01-30T09:28:48;14;11;
84751;PMS5003;74978;37.772;-122.432;2024-01-30T09:31:13;16;15;
84751;PMS5003;74978;37.772;-122.432;2024-01-30T09:33:39;11;11;
84751;PMS5003;74978;37.772;-122.432;2024-01-30T09:36:05;14;13;
84751;PMS5003;74978;37.772;-122.432;2024-01-30T09:38:31;17;14;
84751;PMS5003;74978;37.772;-122.432;2024-01-30T09:40:56;15;13;
84751;PMS5003;74978;37.772;-122.432;2024-01-30T09:43:22;12;12;
84751;PMS5003;74978;37.772;-122.432;2024-01-30T09:45:47;13;13;
84751;PMS5003;74978;37.772;-122.432;2024-01-30T09:48:12;13;11;
84751;PMS5003;74978;37.772;-122.432;2024-01-30T09:50:38;11;11;
84751;PMS5003;74978;37.772;-122.432;2024-01-30T09:53:03;14;11;
84751;PMS5003;74978;37.772;-122.432;2024-01-30T09:55:28;14;14;
84751;PMS5003;74978;37.772;-122.432;2024-01-30T09:57:53;21;16;
84751;PMS5003;74978;37.772;-122.432;2024-01-30T10:00:19;22;20;
84751;PMS5003;74978;37.772;-122.432;2024-01-30T10:02:44;15;15;
84751;PMS5003;74978;37.772;-122.432;2024-01-30T10:05:09;13;13;
84751;PMS5003;74978;37.772;-122.432;2024-01-30T10:07:34;20;15;
84751;PMS5003;74978;37.772;-122.432;2024-01-30T10:09:59;12;12;
84751;PMS5003;74978;37.772;-122.432;2024-01-30T10:12:26;18;18;
84751;PMS5003;74978;37.772;-122.432;2024-01-30T10:14:50;17;17;
84751;PMS5003;74978;37.772;-122.432;2024-01-30T10:17:16;17;17;
84751;PMS5003;74978;37.772;-122.432;2024-01-30T10:19:41;21;19;
84751;PMS5003;74978;37.772;-122.432;2024-01-30T10:22:09;16;13;
84751;PMS5003;74978;37.772;-122.432;2024-01-30T10:24:33;18;18;
84751;PMS5003;74978;37.772;-122.432;2024-01-30T10:26:58;13;13;
84751;PMS5003;74978;37.772;-122.432;2024-01-30T10:29:23;18;18;
84751;PMS5003;74978;37.772;-122.432;2024-01-30T10:34:14;15;15;
84751;PMS5003;74978;37.772;-122.432;2024-01-30T10:36:40;19;18;
84751;PMS5003;74978;37.772;-122.432;2024-01-30T10:39:05;13;13;
84751;PMS5003;74978;37.772;-122.432;2024-01-30T10:41:31;16;14;
84751;PMS5003;74978;37.772;-122.432;2024-01-30T10:43:58;16;16;
84751;PMS5003;74978;37.772;-122.432;2024-01-30T10:46:22;19;16;
84751;PMS5003;74978;37.772;-122.432;2024-01-30T10:48:50;17;14;
84751;PMS5003;74978;37.772;-122.432;2024-01-30T10:51:12;17;13;
84751;PMS5003;74978;37.772;-122.432;2024-01-30T10:53:38;15;15;
84751;PMS5003;74978;37.772;-122.432;2024-01-30T10:56:04;13;13;
84751;PMS5003;74978;37.772;-122.432;2024-01-30T10:58:29;15;14;
84751;PMS5003;74978;37.772;-122.432;2024-01-30T11:00:55;11;11;
84751;PMS5003;74978;37.772;-122.432;2024-01-30T11:03:20;14;10;
84751;PMS5003;74978;37.772;-122.432;2024-01-30T11:05:49;10;10;
84751;PMS5003;74978;37.772;-122.432;2024-01-30T11:08:11;12;11;
84751;PMS5003;74978;37.772;-122.432;2024-01-30T11:13:09;10;10;
84751;PMS5003;74978;37.772;-122.432;2024-01-30T11:15:27;15;14;
84751;PMS5003;74978;37.772;-122.432;2024-01-30T11:17:53;12;11;
84751;PMS5003;74978;37.772;-122.432;2024-01-30T11:20:20;15;13;
84751;PMS5003;74978;37.772;-122.432;2024-01-30T11:25:13;15;13;
84751;PMS5003;74978;37.772;-122.432;2024-01-30T11:27:35;14;13;
84751;PMS5003;74978;37.772;-122.432;2024-01-30T11:30:01;13;13;
84751;PMS5003;74978;37.772;-122.432;2024-01-30T11:32:26;15;15;
84751;PMS5003;74978;37.772;-122.432;2024-01-30T11:34:51;14;14;
84751;PMS5003;74978;37.772;-122.432;2024-01-30T11:37:17;15;14;
84751;PMS5003;74978;37.772;-122.432;2024-01-30T11:39:42;15;14;
84751;PMS5003;74978;37.772;-122.432;2024-01-30T11:42:08;15;13;
84751;PMS5003;74978;37.772;-122.432;2024-01-30T11:44:34;12;12;
84751;PMS5003;74978;37.772;-122.432;2024-01-30T11:46:59;13;12;
84751;PMS5003;74978;37.772;-122.432;2024-01-30T11:49:24;13;11;
84751;PMS5003;74978;37.772;-122.432;2024-01-30T11:51:50;17;16;
84751;PMS5003;74978;37.772;-122.432;2024-01-30T11:54:15;9;9;
84751;PMS5003;74978;37.772;-122.432;2024-01-30T11:56:40;11;11;
84751;PMS5003;74978;37.772;-122.432;2024-01-30T11:59:06;10;7;
84751;PMS5003;74978;37.772;-122.432;2024-01-30T12:01:31;10;10;
84751;PMS5003;74978;37.772;-122.432;2024-01-30T12:03:57;10;10;
84751;PMS5003;74978;37.772;-122.432;2024-01-30T12:06:22;12;10;
84751;PMS5003;74978;37.772;-122.432;2024-01-30T12:11:14;14;14;
84751;PMS5003;74978;37.772;-122.432;2024-01-30T12:13:38;20;17;
84751;PMS5003;74978;37.772;-122.432;2024-01-30T12:16:04;15;14;
84751;PMS5003;74978;37.772;-122.432;2024-01-30T12:18:29;12;12;
84751;PMS5003;74978;37.772;-122.432;2024-01-30T12:20:58;14;14;
84751;PMS5003;74978;37.772;-122.432;2024-01-30T12:23:19;12;12;
84751;PMS5003;74978;37.772;-122.432;2024-01-30T12:25:45;14;14;
84751;PMS5003;74978;37.772;-122.432;2024-01-30T12:28:10;14;14;
84751;PMS5003;74978;37.772;-122.432;2024-01-30T12:30:35;14;14;
84751;PMS5003;74978;37.772;-122.432;2024-01-30T12:33:02;16;14;
84751;PMS5003;74978;37.772;-122.432;2024-01-30T12:35:27;13;13;
84751;PMS5003;74978;37.772;-122.432;2024-01-30T12:37:52;12;12;
84751;PMS5003;74978;37.772;-122.432;2024-01-30T12:40:17;12;12;
84751;PMS5003;74978;37.772;-122.432;2024-01-30T12:42:43;13;13;
84751;PMS5003;74978;37.772;-122.432;2024-01-30T12:45:08;11;11;
84751;PMS5003;74978;37.772;-122.432;2024-01-30T12:47:33;20;15;
84751;PMS5003;74978;37.772;-122.432;2024-01-30T12:49:59;19;16;
84751;PMS5003;74978;37.772;-122.432;2024-01-30T12:52:24;16;16;
84751;PMS5003;74978;37.772;-122.432;2024-01-30T12:54:50;18;17;
84751;PMS5003;74978;37.772;-122.432;2024-01-30T12:57:14;16;14;
84751;PMS5003;74978;37.772;-122.432;2024-01-30T12:59:40;20;19;
84751;PMS5003;74978;37.772;-122.432;2024-01-30T13:02:06;20;19;
84751;PMS5003;74978;37.772;-122.432;2024-01-30T13:04:31;13;13;
84751;PMS5003;74978;37.772;-122.432;2024-01-30T13:06:57;15;15;
84751;PMS5003;74978;37.772;-122.432;2024-01-30T13:09:23;16;15;
84751;PMS5003;74978;37.772;-122.432;2024-01-30T13:11:48;18;17;
84751;PMS5003;74978;37.772;-122.432;2024-01-30T13:14:13;15;15;
84751;PMS5003;74978;37.772;-122.432;2024-01-30T13:16:39;18;18;
84751;PMS5003;74978;37.772;-122.432;2024-01-30T13:19:03;19;18;
84751;PMS5003;74978;37.772;-122.432;2024-01-30T13:21:29;17;15;
84751;PMS5003;74978;37.772;-122.432;2024-01-30T13:23:54;20;19;
84751;PMS5003;74978;37.772;-122.432;2024-01-30T13:26:20;21;20;
84751;PMS5003;74978;37.772;-122.432;2024-01-30T13:28:46;20;20;
84751;PMS5003;74978;37.772;-122.432;2024-01-30T13:31:12;20;18;
84751;PMS5003;74978;37.772;-122.432;2024-01-30T13:33:37;19;19;
84751;PMS5003;74978;37.772;-122.432;2024-01-30T13:36:03;17;17;
84751;PMS5003;74978;37.772;-122.432;2024-01-30T13:38:28;23;20;
84751;PMS5003;74978;37.772;-122.432;2024-01-30T13:40:53;21;21;
84751;PMS5003;74978;37.772;-122.432;2024-01-30T13:43:19;22;22;
84751;PMS5003;74978;37.772;-122.432;2024-01-30T13:45:44;23;22;
84751;PMS5003;74978;37.772;-122.432;2024-01-30T13:48:10;21;19;
84751;PMS5003;74978;37.772;-122.432;2024-01-30T13:50:35;21;21;
84751;PMS5003;74978;37.772;-122.432;2024-01-30T13:53:01;20;20;
84751;PMS5003;74978;37.772;-122.432;2024-01-30T13:55:25;27;24;
84751;PMS5003;74978;37.772;-122.432;2024-01-30T13:57:51;22;21;
84751;PMS5003;74978;37.772;-122.432;2024-01-30T14:00:18;27;24;
84751;PMS5003;74978;37.772;-122.432;2024-01-30T14:02:43;20;20;
84751;PMS5003;74978;37.772;-122.432;2024-01-30T14:05:08;21;20;
84751;PMS5003;74978;37.772;-122.432;2024-01-30T14:07:33;18;18;
84751;PMS5003;74978;37.772;-122.432;2024-01-30T14:09:58;22;21;
84751;PMS5003;74978;37.772;-122.432;2024-01-30T14:12:24;23;21;
84751;PMS5003;74978;37.772;-122.432;2024-01-30T14:14:48;24;23;
84751;PMS5003;74978;37.772;-122.432;2024-01-30T14:17:14;30;29;
84751;PMS5003;74978;37.772;-122.432;2024-01-30T14:19:39;21;19;
84751;PMS5003;74978;37.772;-122.432;2024-01-30T14:22:05;17;17;
84751;PMS5003;74978;37.772;-122.432;2024-01-30T14:24:30;21;20;
84751;PMS5003;74978;37.772;-122.432;2024-01-30T14:26:55;23;20;
84751;PMS5003;74978;37.772;-122.432;2024-01-30T14:29:20;21;20;
84751;PMS5003;74978;37.772;-122.432;2024-01-30T14:31:46;23;21;
84751;PMS5003;74978;37.772;-122.432;2024-01-30T14:34:12;22;20;
84751;PMS5003;74978;37.772;-122.432;2024-01-30T14:36:37;18;18;
84751;PMS5003;74978;37.772;-122.432;2024-01-30T14:39:02;22;20;
84751;PMS5003;74978;37.772;-122.432;2024-01-30T14:41:27;18;16;
84751;PMS5003;74978;37.772;-122.432;2024-01-30T14:43:54;18;18;
84751;PMS5003;74978;37.772;-122.432;2024-01-30T14:46:18;20;20;
84751;PMS5003;74978;37.772;-122.432;2024-01-30T14:48:44;20;19;
84751;PMS5003;74978;37.772;-122.432;2024-01-30T14:51:09;18;16;
84751;PMS5003;74978;37.772;-122.432;2024-01-30T14:53:35;16;16;
84751;PMS5003;74978;37.772;-122.432;2024-01-30T14:56:01;17;17;
84751;PMS5003;74978;37.772;-122.432;2024-01-30T14:58:26;12;12;
84751;PMS5003;74978;37.772;-122.432;2024-01-30T15:00:51;17;15;
84751;PMS5003;74978;37.772;-122.432;2024-01-30T15:03:17;14;14;
84751;PMS5003;74978;37.772;-122.432;2024-01-30T15:05:42;17;15;
84751;PMS5003;74978;37.772;-122.432;2024-01-30T15:08:08;16;15;
84751;PMS5003;74978;37.772;-122.432;2024-01-30T15:10:33;18;18;
84751;PMS5003;74978;37.772;-122.432;2024-01-30T15:12:58;17;16;
84751;PMS5003;74978;37.772;-122.432;2024-01-30T15:15:24;14;12;
84751;PMS5003;74978;37.772;-122.432;2024-01-30T15:17:49;17;13;
84751;PMS5003;74978;37.772;-122.432;2024-01-30T15:20:15;19;17;
84751;PMS5003;74978;37.772;-122.432;2024-01-30T15:22:41;17;16;
84751;PMS5003;74978;37.772;-122.432;2024-01-30T15:25:06;16;16;
84751;PMS5003;74978;37.772;-122.432;2024-01-30T15:27:31;26;24;
84751;PMS5003;74978;37.772;-122.432;2024-01-30T15:29:57;19;17;
84751;PMS5003;74978;37.772;-122.432;2024-01-30T15:32:22;15;15;
84751;PMS5003;74978;37.772;-122.432;2024-01-30T15:34:47;15;15;
84751;PMS5003;74978;37.772;-122.432;2024-01-30T15:37:13;17;16;